sensor_id;sensor_type;location;lat;lon;timestamp;pressure;altitude;pressure_sealevel;temperature;humidity
75424;BME280;64005;55.160;36.002;2023-02-12T00:00:04;97966.06;;;-2.06;76.17
75424;BME280;64005;55.160;36.002;2023-02-12T00:02:32;98039.75;;;-1.77;76.69
75424;BME280;64005;55.160;36.002;2023-02-12T00:04:59;98016.41;;;-1.93;76.22
75424;BME280;64005;55.160;36.002;2023-02-12T00:07:28;98039.50;;;-1.81;76.74
75424;BME280;64005;55.160;36.002;2023-02-12T00:09:57;98047.69;;;-1.81;76.49
75424;BME280;64005;55.160;36.002;2023-02-12T00:12:25;98057.50;;;-1.85;75.54
75424;BME280;64005;55.160;36.002;2023-02-12T00:14:52;98071.97;;;-1.89;76.28
75424;BME280;64005;55.160;36.002;2023-02-12T00:17:20;98085.91;;;-2.01;75.88
75424;BME280;64005;55.160;36.002;2023-02-12T00:19:47;98087.81;;;-2.02;75.93
75424;BME280;64005;55.160;36.002;2023-02-12T00:22:16;98104.16;;;-1.96;75.96
75424;BME280;64005;55.160;36.002;2023-02-12T00:24:43;98101.41;;;-1.96;75.43
75424;BME280;64005;55.160;36.002;2023-02-12T00:27:12;98102.25;;;-1.96;75.06
75424;BME280;64005;55.160;36.002;2023-02-12T00:29:40;98103.91;;;-2.00;75.32
75424;BME280;64005;55.160;36.002;2023-02-12T00:32:07;98119.41;;;-2.06;75.42
75424;BME280;64005;55.160;36.002;2023-02-12T00:34:35;98109.09;;;-2.14;75.12
75424;BME280;64005;55.160;36.002;2023-02-12T00:37:02;98121.91;;;-2.19;74.64
75424;BME280;64005;55.160;36.002;2023-02-12T00:39:30;98124.63;;;-2.14;75.20
75424;BME280;64005;55.160;36.002;2023-02-12T00:41:57;98135.50;;;-2.19;74.91
75424;BME280;64005;55.160;36.002;2023-02-12T00:44:26;98124.09;;;-2.21;75.15
75424;BME280;64005;55.160;36.002;2023-02-12T00:46:53;98138.00;;;-2.28;75.37
75424;BME280;64005;55.160;36.002;2023-02-12T00:49:22;98154.34;;;-2.28;75.41
75424;BME280;64005;55.160;36.002;2023-02-12T00:51:49;98154.34;;;-2.23;74.99
75424;BME280;64005;55.160;36.002;2023-02-12T00:54:17;98169.59;;;-2.22;74.56
75424;BME280;64005;55.160;36.002;2023-02-12T00:56:45;98182.94;;;-2.30;74.84
75424;BME280;64005;55.160;36.002;2023-02-12T01:01:48;98182.38;;;-2.37;75.32
75424;BME280;64005;55.160;36.002;2023-02-12T01:04:16;98190.03;;;-2.34;75.85
75424;BME280;64005;55.160;36.002;2023-02-12T01:06:44;98201.44;;;-2.32;75.38
75424;BME280;64005;55.160;36.002;2023-02-12T01:09:11;98195.75;;;-2.41;75.68
75424;BME280;64005;55.160;36.002;2023-02-12T01:11:39;98222.69;;;-2.45;75.39
75424;BME280;64005;55.160;36.002;2023-02-12T01:14:07;98219.44;;;-2.42;75.30
75424;BME280;64005;55.160;36.002;2023-02-12T01:16:35;98214.00;;;-2.42;74.88
75424;BME280;64005;55.160;36.002;2023-02-12T01:19:04;98236.03;;;-2.48;74.70
75424;BME280;64005;55.160;36.002;2023-02-12T01:21:33;98244.19;;;-2.63;75.29
75424;BME280;64005;55.160;36.002;2023-02-12T01:24:01;98250.44;;;-2.63;75.32
75424;BME280;64005;55.160;36.002;2023-02-12T01:26:30;98247.41;;;-2.71;75.74
75424;BME280;64005;55.160;36.002;2023-02-12T01:28:59;98262.41;;;-2.74;76.08
75424;BME280;64005;55.160;36.002;2023-02-12T01:31:30;98272.47;;;-2.74;76.24
75424;BME280;64005;55.160;36.002;2023-02-12T01:33:59;98288.56;;;-2.63;76.12
75424;BME280;64005;55.160;36.002;2023-02-12T01:36:30;98278.75;;;-2.64;75.76
75424;BME280;64005;55.160;36.002;2023-02-12T01:38:58;98301.03;;;-2.72;75.79
75424;BME280;64005;55.160;36.002;2023-02-12T01:41:29;98300.72;;;-2.91;75.42
75424;BME280;64005;55.160;36.002;2023-02-12T01:44:08;98303.47;;;-2.81;75.29
75424;BME280;64005;55.160;36.002;2023-02-12T01:46:36;98302.66;;;-2.76;74.99
75424;BME280;64005;55.160;36.002;2023-02-12T01:49:09;98314.13;;;-2.74;74.56
75424;BME280;64005;55.160;36.002;2023-02-12T01:51:39;98321.72;;;-2.81;74.17
75424;BME280;64005;55.160;36.002;2023-02-12T01:54:10;98336.66;;;-2.84;73.95
75424;BME280;64005;55.160;36.002;2023-02-12T01:56:38;98351.31;;;-2.90;73.91
75424;BME280;64005;55.160;36.002;2023-02-12T01:59:07;98342.91;;;-2.88;73.84
75424;BME280;64005;55.160;36.002;2023-02-12T02:01:35;98364.66;;;-2.93;73.40
75424;BME280;64005;55.160;36.002;2023-02-12T02:04:06;98252.00;;;-3.59;73.64
75424;BME280;64005;55.160;36.002;2023-02-12T02:06:40;98359.47;;;-3.00;73.68
75424;BME280;64005;55.160;36.002;2023-02-12T02:09:08;98372.25;;;-3.00;73.39
75424;BME280;64005;55.160;36.002;2023-02-12T02:11:36;98362.69;;;-3.03;73.29
75424;BME280;64005;55.160;36.002;2023-02-12T02:14:20;98359.94;;;-3.13;73.15
75424;BME280;64005;55.160;36.002;2023-02-12T02:17:08;98401.72;;;-3.24;73.11
75424;BME280;64005;55.160;36.002;2023-02-12T02:19:55;98367.16;;;-3.29;73.09
75424;BME280;64005;55.160;36.002;2023-02-12T02:22:35;98395.41;;;-3.35;72.96
75424;BME280;64005;55.160;36.002;2023-02-12T02:25:39;98398.63;;;-3.38;72.82
75424;BME280;64005;55.160;36.002;2023-02-12T02:28:31;98401.41;;;-3.33;72.69
75424;BME280;64005;55.160;36.002;2023-02-12T02:31:04;98395.28;;;-3.50;72.67
75424;BME280;64005;55.160;36.002;2023-02-12T02:33:40;98410.28;;;-3.47;72.36
75424;BME280;64005;55.160;36.002;2023-02-12T02:36:24;98424.56;;;-3.62;72.84
75424;BME280;64005;55.160;36.002;2023-02-12T02:38:59;98438.28;;;-3.47;72.68
75424;BME280;64005;55.160;36.002;2023-02-12T02:41:34;98479.38;;;-3.38;72.10
75424;BME280;64005;55.160;36.002;2023-02-12T02:44:06;98468.84;;;-3.35;71.68
75424;BME280;64005;55.160;36.002;2023-02-12T02:46:43;98472.06;;;-3.38;71.82
75424;BME280;64005;55.160;36.002;2023-02-12T02:49:16;98468.03;;;-3.30;71.62
75424;BME280;64005;55.160;36.002;2023-02-12T02:51:49;98487.03;;;-3.35;71.29
75424;BME280;64005;55.160;36.002;2023-02-12T02:54:21;98445.25;;;-3.56;71.20
75424;BME280;64005;55.160;36.002;2023-02-12T02:57:02;98487.03;;;-3.35;71.00
75424;BME280;64005;55.160;36.002;2023-02-12T02:59:35;98493.31;;;-3.35;70.82
75424;BME280;64005;55.160;36.002;2023-02-12T03:02:09;98476.59;;;-3.48;70.80
75424;BME280;64005;55.160;36.002;2023-02-12T03:04:41;98508.97;;;-3.47;70.70
75424;BME280;64005;55.160;36.002;2023-02-12T03:07:14;98522.06;;;-3.39;70.58
75424;BME280;64005;55.160;36.002;2023-02-12T03:09:46;98510.34;;;-3.44;70.47
75424;BME280;64005;55.160;36.002;2023-02-12T03:12:19;98526.75;;;-3.34;70.34
75424;BME280;64005;55.160;36.002;2023-02-12T03:14:53;98528.91;;;-3.36;69.85
75424;BME280;64005;55.160;36.002;2023-02-12T03:17:29;98520.13;;;-3.43;70.30
75424;BME280;64005;55.160;36.002;2023-02-12T03:20:00;98553.34;;;-3.41;70.46
75424;BME280;64005;55.160;36.002;2023-02-12T03:22:32;98557.09;;;-3.47;70.65
75424;BME280;64005;55.160;36.002;2023-02-12T03:25:04;98556.91;;;-3.36;70.43
75424;BME280;64005;55.160;36.002;2023-02-12T03:27:38;98554.66;;;-3.44;70.73
75424;BME280;64005;55.160;36.002;2023-02-12T03:30:09;98580.72;;;-3.48;70.99
75424;BME280;64005;55.160;36.002;2023-02-12T03:32:43;98542.03;;;-3.82;71.08
75424;BME280;64005;55.160;36.002;2023-02-12T03:35:17;98554.25;;;-3.57;70.40
75424;BME280;64005;55.160;36.002;2023-02-12T03:37:53;98580.28;;;-3.40;70.22
75424;BME280;64005;55.160;36.002;2023-02-12T03:40:27;98609.66;;;-3.37;70.09
75424;BME280;64005;55.160;36.002;2023-02-12T03:42:58;98587.00;;;-3.47;70.02
75424;BME280;64005;55.160;36.002;2023-02-12T03:45:37;98603.94;;;-3.40;70.21
75424;BME280;64005;55.160;36.002;2023-02-12T03:48:12;98551.41;;;-3.94;70.29
75424;BME280;64005;55.160;36.002;2023-02-12T03:50:50;98622.00;;;-3.51;70.40
75424;BME280;64005;55.160;36.002;2023-02-12T03:53:19;98628.78;;;-3.53;70.46
75424;BME280;64005;55.160;36.002;2023-02-12T03:55:50;98622.41;;;-3.64;70.69
75424;BME280;64005;55.160;36.002;2023-02-12T03:58:23;98615.94;;;-3.58;70.45
75424;BME280;64005;55.160;36.002;2023-02-12T04:00:53;98642.88;;;-3.56;69.98
75424;BME280;64005;55.160;36.002;2023-02-12T04:03:23;98641.22;;;-3.57;69.70
75424;BME280;64005;55.160;36.002;2023-02-12T04:05:51;98668.41;;;-3.57;69.17
75424;BME280;64005;55.160;36.002;2023-02-12T04:08:22;98585.44;;;-4.09;68.78
75424;BME280;64005;55.160;36.002;2023-02-12T04:10:58;98665.84;;;-3.69;68.92
75424;BME280;64005;55.160;36.002;2023-02-12T04:13:35;98669.63;;;-3.70;68.62
75424;BME280;64005;55.160;36.002;2023-02-12T04:16:15;98683.44;;;-3.72;68.07
75424;BME280;64005;55.160;36.002;2023-02-12T04:18:47;98690.97;;;-3.79;68.00
75424;BME280;64005;55.160;36.002;2023-02-12T04:21:22;98675.75;;;-3.80;67.87
75424;BME280;64005;55.160;36.002;2023-02-12T04:24:03;98684.41;;;-3.83;67.38
75424;BME280;64005;55.160;36.002;2023-02-12T04:26:38;98696.03;;;-3.87;67.24
75424;BME280;64005;55.160;36.002;2023-02-12T04:29:16;98699.88;;;-3.83;67.16
75424;BME280;64005;55.160;36.002;2023-02-12T04:31:48;98708.78;;;-3.88;67.31
75424;BME280;64005;55.160;36.002;2023-02-12T04:34:23;98650.91;;;-4.27;66.71
75424;BME280;64005;55.160;36.002;2023-02-12T04:36:58;98723.75;;;-3.85;66.92
75424;BME280;64005;55.160;36.002;2023-02-12T04:39:29;98738.50;;;-3.98;66.56
75424;BME280;64005;55.160;36.002;2023-02-12T04:41:58;98748.47;;;-4.04;66.08
75424;BME280;64005;55.160;36.002;2023-02-12T04:44:28;98732.44;;;-4.22;66.25
75424;BME280;64005;55.160;36.002;2023-02-12T04:46:56;98742.66;;;-4.12;66.07
75424;BME280;64005;55.160;36.002;2023-02-12T04:49:25;98753.53;;;-4.12;65.80
75424;BME280;64005;55.160;36.002;2023-02-12T04:51:53;98745.63;;;-4.14;65.74
75424;BME280;64005;55.160;36.002;2023-02-12T04:54:22;98752.88;;;-4.19;65.63
75424;BME280;64005;55.160;36.002;2023-02-12T04:56:50;98751.53;;;-4.33;65.73
75424;BME280;64005;55.160;36.002;2023-02-12T04:59:18;98761.50;;;-4.22;65.66
75424;BME280;64005;55.160;36.002;2023-02-12T05:01:45;98760.75;;;-4.18;65.51
75424;BME280;64005;55.160;36.002;2023-02-12T05:04:14;98793.09;;;-4.33;64.71
75424;BME280;64005;55.160;36.002;2023-02-12T05:06:44;98809.38;;;-4.33;64.95
75424;BME280;64005;55.160;36.002;2023-02-12T05:09:14;98787.88;;;-4.51;64.14
75424;BME280;64005;55.160;36.002;2023-02-12T05:11:43;98772.19;;;-4.77;63.75
75424;BME280;64005;55.160;36.002;2023-02-12T05:14:11;98792.22;;;-4.50;63.96
75424;BME280;64005;55.160;36.002;2023-02-12T05:16:39;98796.75;;;-4.56;63.60
75424;BME280;64005;55.160;36.002;2023-02-12T05:19:06;98803.09;;;-4.50;63.65
75424;BME280;64005;55.160;36.002;2023-02-12T05:21:34;98821.03;;;-4.49;63.74
75424;BME280;64005;55.160;36.002;2023-02-12T05:24:04;98832.47;;;-4.47;63.33
75424;BME280;64005;55.160;36.002;2023-02-12T05:26:33;98836.56;;;-4.45;63.09
75424;BME280;64005;55.160;36.002;2023-02-12T05:29:01;98860.16;;;-4.33;63.23
75424;BME280;64005;55.160;36.002;2023-02-12T05:31:29;98848.06;;;-4.26;62.76
75424;BME280;64005;55.160;36.002;2023-02-12T05:33:56;98884.75;;;-4.23;62.72
75424;BME280;64005;55.160;36.002;2023-02-12T05:36:25;98863.47;;;-4.15;62.92
75424;BME280;64005;55.160;36.002;2023-02-12T05:38:56;98776.06;;;-4.73;62.70
75424;BME280;64005;55.160;36.002;2023-02-12T05:41:26;98863.38;;;-4.20;62.38
75424;BME280;64005;55.160;36.002;2023-02-12T05:43:54;98876.31;;;-4.10;62.29
75424;BME280;64005;55.160;36.002;2023-02-12T05:46:21;98866.34;;;-4.05;62.52
75424;BME280;64005;55.160;36.002;2023-02-12T05:48:49;98867.53;;;-4.01;62.48
75424;BME280;64005;55.160;36.002;2023-02-12T05:51:19;98863.16;;;-4.02;62.25
75424;BME280;64005;55.160;36.002;2023-02-12T05:53:49;98877.56;;;-4.01;62.77
75424;BME280;64005;55.160;36.002;2023-02-12T05:56:18;98888.44;;;-4.01;63.08
75424;BME280;64005;55.160;36.002;2023-02-12T05:58:52;98877.66;;;-3.96;63.63
75424;BME280;64005;55.160;36.002;2023-02-12T06:01:22;98805.03;;;-4.34;63.59
75424;BME280;64005;55.160;36.002;2023-02-12T06:03:50;98891.63;;;-4.04;63.53
75424;BME280;64005;55.160;36.002;2023-02-12T06:06:18;98895.59;;;-3.95;63.22
75424;BME280;64005;55.160;36.002;2023-02-12T06:08:46;98902.34;;;-3.97;62.69
75424;BME280;64005;55.160;36.002;2023-02-12T06:11:15;98862.13;;;-4.29;62.50
75424;BME280;64005;55.160;36.002;2023-02-12T06:13:44;98921.63;;;-3.99;62.49
75424;BME280;64005;55.160;36.002;2023-02-12T06:16:18;98913.88;;;-3.90;62.36
75424;BME280;64005;55.160;36.002;2023-02-12T06:18:46;98920.47;;;-3.86;62.48
75424;BME280;64005;55.160;36.002;2023-02-12T06:21:14;98916.50;;;-3.79;62.56
75424;BME280;64005;55.160;36.002;2023-02-12T06:23:41;98935.31;;;-3.77;62.67
75424;BME280;64005;55.160;36.002;2023-02-12T06:26:09;98932.34;;;-3.76;62.49
75424;BME280;64005;55.160;36.002;2023-02-12T06:28:37;98938.94;;;-3.72;62.85
75424;BME280;64005;55.160;36.002;2023-02-12T06:31:05;98932.19;;;-3.69;63.36
75424;BME280;64005;55.160;36.002;2023-02-12T06:33:42;98943.53;;;-3.72;63.23
75424;BME280;64005;55.160;36.002;2023-02-12T06:36:10;98944.19;;;-3.65;63.66
75424;BME280;64005;55.160;36.002;2023-02-12T06:38:37;98949.63;;;-3.65;62.75
75424;BME280;64005;55.160;36.002;2023-02-12T06:41:04;98946.69;;;-3.64;62.24
75424;BME280;64005;55.160;36.002;2023-02-12T06:43:32;98959.06;;;-3.56;62.40
75424;BME280;64005;55.160;36.002;2023-02-12T06:46:00;98953.63;;;-3.56;62.46
75424;BME280;64005;55.160;36.002;2023-02-12T06:48:28;98956.75;;;-3.47;62.13
75424;BME280;64005;55.160;36.002;2023-02-12T06:51:03;98960.53;;;-3.48;62.46
75424;BME280;64005;55.160;36.002;2023-02-12T06:53:32;98976.47;;;-3.40;62.11
75424;BME280;64005;55.160;36.002;2023-02-12T06:56:01;98967.31;;;-3.34;62.17
75424;BME280;64005;55.160;36.002;2023-02-12T06:58:29;98964.41;;;-3.44;62.80
75424;BME280;64005;55.160;36.002;2023-02-12T07:01:07;98965.22;;;-3.44;62.55
75424;BME280;64005;55.160;36.002;2023-02-12T07:03:39;98981.00;;;-3.46;63.01
75424;BME280;64005;55.160;36.002;2023-02-12T07:06:08;98981.22;;;-3.47;63.33
75424;BME280;64005;55.160;36.002;2023-02-12T07:08:36;98985.00;;;-3.48;63.42
75424;BME280;64005;55.160;36.002;2023-02-12T07:11:04;98986.28;;;-3.39;63.32
75424;BME280;64005;55.160;36.002;2023-02-12T07:13:31;98988.81;;;-3.33;63.53
75424;BME280;64005;55.160;36.002;2023-02-12T07:16:02;98999.44;;;-3.31;63.03
75424;BME280;64005;55.160;36.002;2023-02-12T07:18:30;98993.31;;;-3.38;63.32
75424;BME280;64005;55.160;36.002;2023-02-12T07:20:58;99007.03;;;-3.33;63.30
75424;BME280;64005;55.160;36.002;2023-02-12T07:23:27;99008.41;;;-3.31;62.79
75424;BME280;64005;55.160;36.002;2023-02-12T07:25:55;99010.66;;;-3.28;62.74
75424;BME280;64005;55.160;36.002;2023-02-12T07:28:24;99011.72;;;-3.29;62.39
75424;BME280;64005;55.160;36.002;2023-02-12T07:30:52;99012.63;;;-3.23;61.98
75424;BME280;64005;55.160;36.002;2023-02-12T07:33:20;99012.47;;;-3.16;61.87
75424;BME280;64005;55.160;36.002;2023-02-12T07:35:47;99019.88;;;-3.12;61.80
75424;BME280;64005;55.160;36.002;2023-02-12T07:38:14;99021.94;;;-3.02;61.53
75424;BME280;64005;55.160;36.002;2023-02-12T07:40:43;99030.59;;;-3.05;61.48
75424;BME280;64005;55.160;36.002;2023-02-12T07:43:11;99030.53;;;-3.10;61.73
75424;BME280;64005;55.160;36.002;2023-02-12T07:45:38;99041.59;;;-3.00;62.03
75424;BME280;64005;55.160;36.002;2023-02-12T08:02:54;99082.91;;;-3.32;62.17
75424;BME280;64005;55.160;36.002;2023-02-12T08:05:21;99079.66;;;-3.17;62.07
75424;BME280;64005;55.160;36.002;2023-02-12T08:07:48;99081.06;;;-3.14;61.49
75424;BME280;64005;55.160;36.002;2023-02-12T08:10:16;99083.13;;;-3.22;61.14
75424;BME280;64005;55.160;36.002;2023-02-12T08:12:47;99103.44;;;-3.41;60.71
75424;BME280;64005;55.160;36.002;2023-02-12T08:15:14;99094.16;;;-3.28;60.77
75424;BME280;64005;55.160;36.002;2023-02-12T08:17:42;99117.16;;;-3.19;60.63
75424;BME280;64005;55.160;36.002;2023-02-12T08:20:11;99084.66;;;-3.26;60.34
75424;BME280;64005;55.160;36.002;2023-02-12T08:22:39;99016.56;;;-3.47;60.31
75424;BME280;64005;55.160;36.002;2023-02-12T08:25:07;99115.72;;;-2.93;60.01
75424;BME280;64005;55.160;36.002;2023-02-12T08:27:34;99121.84;;;-2.86;59.87
75424;BME280;64005;55.160;36.002;2023-02-12T08:30:02;99107.13;;;-2.85;60.29
75424;BME280;64005;55.160;36.002;2023-02-12T08:32:30;99115.25;;;-2.73;60.05
75424;BME280;64005;55.160;36.002;2023-02-12T08:34:58;99116.69;;;-2.66;60.00
75424;BME280;64005;55.160;36.002;2023-02-12T08:37:27;99106.16;;;-2.62;60.38
75424;BME280;64005;55.160;36.002;2023-02-12T08:39:55;99114.56;;;-2.47;60.04
75424;BME280;64005;55.160;36.002;2023-02-12T08:42:22;99119.56;;;-2.39;59.73
75424;BME280;64005;55.160;36.002;2023-02-12T08:44:50;99125.78;;;-2.44;59.81
75424;BME280;64005;55.160;36.002;2023-02-12T08:47:17;99130.41;;;-2.44;59.87
75424;BME280;64005;55.160;36.002;2023-02-12T08:49:45;99107.47;;;-2.48;59.45
75424;BME280;64005;55.160;36.002;2023-02-12T08:52:12;99111.56;;;-2.29;59.67
75424;BME280;64005;55.160;36.002;2023-02-12T08:54:41;99121.53;;;-2.18;59.59
75424;BME280;64005;55.160;36.002;2023-02-12T08:57:09;99124.41;;;-2.08;59.61
75424;BME280;64005;55.160;36.002;2023-02-12T08:59:36;99127.88;;;-2.12;59.57
75424;BME280;64005;55.160;36.002;2023-02-12T09:02:04;99137.22;;;-2.08;59.69
75424;BME280;64005;55.160;36.002;2023-02-12T09:04:34;99150.19;;;-2.15;59.60
75424;BME280;64005;55.160;36.002;2023-02-12T09:07:03;99140.78;;;-2.24;59.79
75424;BME280;64005;55.160;36.002;2023-02-12T09:09:30;99155.22;;;-2.24;59.58
75424;BME280;64005;55.160;36.002;2023-02-12T09:11:59;99140.59;;;-2.18;59.75
75424;BME280;64005;55.160;36.002;2023-02-12T09:14:27;99150.59;;;-2.07;59.58
75424;BME280;64005;55.160;36.002;2023-02-12T09:16:54;99145.09;;;-2.28;59.22
75424;BME280;64005;55.160;36.002;2023-02-12T09:19:23;99155.81;;;-2.38;59.46
75424;BME280;64005;55.160;36.002;2023-02-12T09:21:51;99136.25;;;-2.35;59.39
75424;BME280;64005;55.160;36.002;2023-02-12T09:24:18;99062.09;;;-2.76;59.40
75424;BME280;64005;55.160;36.002;2023-02-12T09:26:46;99151.50;;;-2.18;58.64
75424;BME280;64005;55.160;36.002;2023-02-12T09:29:15;99163.81;;;-2.15;58.95
75424;BME280;64005;55.160;36.002;2023-02-12T09:31:42;99152.75;;;-2.25;58.23
75424;BME280;64005;55.160;36.002;2023-02-12T09:34:10;99152.50;;;-2.24;58.76
75424;BME280;64005;55.160;36.002;2023-02-12T09:36:37;99154.56;;;-2.14;58.68
75424;BME280;64005;55.160;36.002;2023-02-12T09:39:05;99159.03;;;-2.08;58.74
75424;BME280;64005;55.160;36.002;2023-02-12T09:44:46;99158.94;;;-2.13;58.52
75424;BME280;64005;55.160;36.002;2023-02-12T09:47:22;99180.00;;;-2.09;58.14
75424;BME280;64005;55.160;36.002;2023-02-12T09:50:03;99190.97;;;-2.04;57.99
75424;BME280;64005;55.160;36.002;2023-02-12T09:52:34;99171.41;;;-2.17;57.93
75424;BME280;64005;55.160;36.002;2023-02-12T09:55:03;99178.34;;;-2.10;57.92
75424;BME280;64005;55.160;36.002;2023-02-12T09:57:32;99187.31;;;-1.92;57.56
75424;BME280;64005;55.160;36.002;2023-02-12T10:00:05;99181.28;;;-1.94;57.68
75424;BME280;64005;55.160;36.002;2023-02-12T10:02:34;99157.84;;;-2.12;57.74
75424;BME280;64005;55.160;36.002;2023-02-12T10:05:03;99183.19;;;-1.95;57.23
75424;BME280;64005;55.160;36.002;2023-02-12T10:08:01;99117.25;;;-2.30;57.76
75424;BME280;64005;55.160;36.002;2023-02-12T10:10:45;99195.28;;;-1.69;57.52
75424;BME280;64005;55.160;36.002;2023-02-12T10:13:23;99201.50;;;-1.74;57.25
75424;BME280;64005;55.160;36.002;2023-02-12T10:16:02;99161.78;;;-1.86;57.04
75424;BME280;64005;55.160;36.002;2023-02-12T10:18:44;99200.91;;;-1.76;56.78
75424;BME280;64005;55.160;36.002;2023-02-12T10:21:28;99204.22;;;-1.74;56.77
75424;BME280;64005;55.160;36.002;2023-02-12T10:24:17;99213.50;;;-1.91;56.93
75424;BME280;64005;55.160;36.002;2023-02-12T10:26:52;99070.19;;;-2.64;56.64
75424;BME280;64005;55.160;36.002;2023-02-12T10:29:24;99210.63;;;-1.63;56.49
75424;BME280;64005;55.160;36.002;2023-02-12T10:31:56;99116.84;;;-2.39;56.18
75424;BME280;64005;55.160;36.002;2023-02-12T10:34:30;99206.19;;;-1.69;56.44
75424;BME280;64005;55.160;36.002;2023-02-12T10:37:02;99202.91;;;-1.49;56.96
75424;BME280;64005;55.160;36.002;2023-02-12T10:39:34;99221.13;;;-1.55;56.29
75424;BME280;64005;55.160;36.002;2023-02-12T10:42:09;99202.69;;;-1.86;56.21
75424;BME280;64005;55.160;36.002;2023-02-12T10:44:38;99232.44;;;-1.63;56.24
75424;BME280;64005;55.160;36.002;2023-02-12T10:47:11;99234.41;;;-1.58;56.36
75424;BME280;64005;55.160;36.002;2023-02-12T10:49:41;99224.25;;;-1.63;56.19
75424;BME280;64005;55.160;36.002;2023-02-12T10:52:12;99249.81;;;-1.86;56.25
75424;BME280;64005;55.160;36.002;2023-02-12T10:54:46;99245.22;;;-2.02;56.60
75424;BME280;64005;55.160;36.002;2023-02-12T10:57:19;99193.78;;;-2.32;56.44
75424;BME280;64005;55.160;36.002;2023-02-12T10:59:49;99248.75;;;-1.85;56.57
75424;BME280;64005;55.160;36.002;2023-02-12T11:02:22;99224.16;;;-1.90;55.95
75424;BME280;64005;55.160;36.002;2023-02-12T11:04:51;99253.84;;;-1.55;56.15
75424;BME280;64005;55.160;36.002;2023-02-12T11:07:19;99270.09;;;-1.43;55.25
75424;BME280;64005;55.160;36.002;2023-02-12T11:09:48;99270.63;;;-1.46;55.80
75424;BME280;64005;55.160;36.002;2023-02-12T11:12:19;99271.69;;;-1.47;55.37
75424;BME280;64005;55.160;36.002;2023-02-12T11:14:52;99276.81;;;-1.51;55.56
75424;BME280;64005;55.160;36.002;2023-02-12T11:17:26;99288.13;;;-1.59;55.50
75424;BME280;64005;55.160;36.002;2023-02-12T11:20:06;99279.72;;;-1.57;55.35
75424;BME280;64005;55.160;36.002;2023-02-12T11:22:35;99301.75;;;-1.42;55.74
75424;BME280;64005;55.160;36.002;2023-02-12T11:25:14;99252.84;;;-1.66;55.22
75424;BME280;64005;55.160;36.002;2023-02-12T11:27:42;99295.78;;;-1.39;55.52
75424;BME280;64005;55.160;36.002;2023-02-12T11:30:16;99229.59;;;-1.90;55.35
75424;BME280;64005;55.160;36.002;2023-02-12T11:32:46;99298.31;;;-1.54;55.78
75424;BME280;64005;55.160;36.002;2023-02-12T11:35:17;99312.44;;;-1.57;56.40
75424;BME280;64005;55.160;36.002;2023-02-12T11:37:52;99327.59;;;-1.67;55.84
75424;BME280;64005;55.160;36.002;2023-02-12T11:40:22;99302.47;;;-1.85;55.66
75424;BME280;64005;55.160;36.002;2023-02-12T11:42:52;99332.53;;;-1.97;56.23
75424;BME280;64005;55.160;36.002;2023-02-12T11:45:26;99340.44;;;-2.12;56.59
75424;BME280;64005;55.160;36.002;2023-02-12T11:47:58;99327.59;;;-2.00;56.58
75424;BME280;64005;55.160;36.002;2023-02-12T11:50:28;99296.19;;;-2.03;56.23
75424;BME280;64005;55.160;36.002;2023-02-12T11:52:59;99345.09;;;-1.96;55.89
75424;BME280;64005;55.160;36.002;2023-02-12T11:55:31;99350.53;;;-1.96;55.85
75424;BME280;64005;55.160;36.002;2023-02-12T11:58:05;99319.00;;;-2.37;56.08
75424;BME280;64005;55.160;36.002;2023-02-12T12:00:45;99357.06;;;-1.97;56.03
75424;BME280;64005;55.160;36.002;2023-02-12T12:03:17;99367.66;;;-2.01;56.19
75424;BME280;64005;55.160;36.002;2023-02-12T12:05:49;99355.56;;;-2.05;56.53
75424;BME280;64005;55.160;36.002;2023-02-12T12:08:22;99314.91;;;-2.23;56.38
75424;BME280;64005;55.160;36.002;2023-02-12T12:10:57;99374.66;;;-2.05;56.25
75424;BME280;64005;55.160;36.002;2023-02-12T12:13:32;99364.09;;;-1.84;55.92
75424;BME280;64005;55.160;36.002;2023-02-12T12:16:07;99369.31;;;-1.66;55.88
75424;BME280;64005;55.160;36.002;2023-02-12T12:18:58;99369.31;;;-1.49;55.93
75424;BME280;64005;55.160;36.002;2023-02-12T12:21:51;99373.59;;;-1.37;55.21
75424;BME280;64005;55.160;36.002;2023-02-12T12:24:25;99348.50;;;-1.17;55.39
75424;BME280;64005;55.160;36.002;2023-02-12T12:26:59;99381.94;;;-0.88;54.63
75424;BME280;64005;55.160;36.002;2023-02-12T12:29:39;99373.06;;;-0.78;54.42
75424;BME280;64005;55.160;36.002;2023-02-12T12:32:11;99371.97;;;-0.77;55.16
75424;BME280;64005;55.160;36.002;2023-02-12T12:34:43;99295.94;;;-1.29;55.29
75424;BME280;64005;55.160;36.002;2023-02-12T12:37:21;99383.28;;;-0.69;54.95
75424;BME280;64005;55.160;36.002;2023-02-12T12:40:03;99400.69;;;-0.75;54.39
75424;BME280;64005;55.160;36.002;2023-02-12T12:42:52;99397.44;;;-0.94;55.00
75424;BME280;64005;55.160;36.002;2023-02-12T12:45:36;99361.63;;;-1.36;54.83
75424;BME280;64005;55.160;36.002;2023-02-12T12:48:15;99328.72;;;-1.79;55.46
75424;BME280;64005;55.160;36.002;2023-02-12T12:51:01;99411.31;;;-1.34;55.23
75424;BME280;64005;55.160;36.002;2023-02-12T12:53:45;99416.28;;;-1.47;55.64
75424;BME280;64005;55.160;36.002;2023-02-12T12:56:23;99414.94;;;-1.45;55.89
75424;BME280;64005;55.160;36.002;2023-02-12T12:59:10;99410.16;;;-1.54;55.36
75424;BME280;64005;55.160;36.002;2023-02-12T13:01:52;99347.34;;;-1.93;55.16
75424;BME280;64005;55.160;36.002;2023-02-12T13:04:47;99344.09;;;-1.90;55.36
75424;BME280;64005;55.160;36.002;2023-02-12T13:07:37;99376.38;;;-1.98;55.84
75424;BME280;64005;55.160;36.002;2023-02-12T13:10:18;99449.41;;;-1.55;55.80
75424;BME280;64005;55.160;36.002;2023-02-12T13:13:08;99411.03;;;-1.82;55.68
75424;BME280;64005;55.160;36.002;2023-02-12T13:15:44;99350.94;;;-2.21;55.90
75424;BME280;64005;55.160;36.002;2023-02-12T13:18:23;99440.13;;;-1.71;55.77
75424;BME280;64005;55.160;36.002;2023-02-12T13:20:59;99441.34;;;-1.79;56.01
75424;BME280;64005;55.160;36.002;2023-02-12T13:23:38;99441.28;;;-1.84;56.25
75424;BME280;64005;55.160;36.002;2023-02-12T13:26:14;99408.72;;;-2.19;56.42
75424;BME280;64005;55.160;36.002;2023-02-12T13:28:47;99452.16;;;-2.01;56.38
75424;BME280;64005;55.160;36.002;2023-02-12T13:31:20;99448.97;;;-2.09;56.74
75424;BME280;64005;55.160;36.002;2023-02-12T13:33:51;99451.09;;;-2.11;57.00